KWVL/WVL METAR and TAF weather

Enter ICAO airport designator
Station Type Date Time Source
KWVL METAR 2020/09/30 14:56 UTC NOAA

KWVL 301456Z AUTO 20012G25KT 10SM SCT017 22/20 A2938 RMK AO2 PK WND 19036/1413 RAE39 SLP973 P0006 60031 T02170200 55015


Station Type Date Time Source
KWVL Decoded METAR 2020/09/30 14:56 UTC NOAA

Waterville, Waterville Robert LaFleur Airport, ME, United States (KWVL) 44-32N 069-41W
Sep 30, 2020 - 10:56 AM EDT / 2020.09.30 1456 UTC
Wind: from the SSW (200 degrees) at 14 MPH (12 KT) gusting to 29 MPH (25 KT):0
Visibility: 10 mile(s):0
Sky conditions: partly cloudy
Precipitation last hour: 0.06 inches
Temperature: 71.1 F (21.7 C)
Dew Point: 68.0 F (20.0 C)
Relative Humidity: 90%
Pressure (altimeter): 29.38 in. Hg (994 hPa)
Pressure tendency: 0.04 inches (1.5 hPa) lower than three hours ago
ob: KWVL 301456Z AUTO 20012G25KT 10SM SCT017 22/20 A2938 RMK AO2 PK WND 19036/1413 RAE39 SLP973 P0006 60031 T02170200 55015
cycle: 15

Station Type Date Time Source
KWVL TAF UTC NOAA

Error!

Example: see airport list